Time;durP1;ratioP1;P1;durP2;ratioP2;P2;SDS_P1;SDS_P2;PMS_P1;PMS_P2;Temp;Humidity;BMP_temperature;BMP_pressure;BME280_temperature;BME280_humidity;BME280_pressure;Samples;Min_cycle;Max_cycle;Signal;HPM_P1;HPM_P2
2023/05/16 00:00:33;;;;;;;71.47;65.10;;;11.70;99.90;;;;;;5208836;28;20048;-77
2023/05/16 00:03:05;;;;;;;69.50;63.13;;;11.80;99.90;;;;;;5209149;28;20415;-77
2023/05/16 00:05:36;;;;;;;67.63;61.83;;;11.80;99.90;;;;;;5209220;28;20042;-77
2023/05/16 00:08:07;;;;;;;67.55;61.85;;;11.70;99.90;;;;;;5191345;28;20022;-77
2023/05/16 00:10:38;;;;;;;63.15;57.55;;;11.60;99.90;;;;;;5208575;28;20765;-77
2023/05/16 00:13:09;;;;;;;62.40;57.10;;;11.80;99.90;;;;;;5209120;28;20021;-78
2023/05/16 00:15:40;;;;;;;56.88;52.00;;;11.90;99.90;;;;;;5191020;28;20412;-76
2023/05/16 00:18:15;;;;;;;58.72;54.15;;;11.80;99.90;;;;;;5208745;28;20021;-77
2023/05/16 00:20:46;;;;;;;55.10;50.50;;;11.80;99.90;;;;;;5208310;28;20045;-78
2023/05/16 00:23:17;;;;;;;58.50;53.63;;;11.80;99.90;;;;;;5190377;28;20350;-78
2023/05/16 00:25:48;;;;;;;56.83;51.92;;;11.60;99.90;;;;;;5191009;28;20040;-77
2023/05/16 00:28:19;;;;;;;59.30;54.60;;;11.80;99.90;;;;;;5208872;28;20025;-78
2023/05/16 00:30:50;;;;;;;58.08;53.28;;;11.90;99.90;;;;;;5208675;28;20037;-76
2023/05/16 00:33:20;;;;;;;54.85;50.03;;;11.70;99.90;;;;;;5190823;28;20021;-76
2023/05/16 00:35:52;;;;;;;59.45;54.70;;;11.80;99.90;;;;;;5190590;28;20061;-77
2023/05/16 00:38:24;;;;;;;60.15;55.42;;;11.70;99.90;;;;;;5208430;28;20545;-77
2023/05/16 00:40:55;;;;;;;58.17;53.38;;;11.80;99.90;;;;;;5208212;28;20037;-78
2023/05/16 00:43:26;;;;;;;56.75;52.17;;;11.70;99.90;;;;;;5208231;28;20076;-77
2023/05/16 00:45:57;;;;;;;60.58;55.85;;;11.70;99.90;;;;;;5208244;28;20112;-77
2023/05/16 00:48:28;;;;;;;61.63;56.72;;;11.70;99.90;;;;;;5207982;28;20064;-77
2023/05/16 00:51:00;;;;;;;63.20;57.90;;;11.70;99.90;;;;;;5208327;28;20045;-77
2023/05/16 00:53:31;;;;;;;60.40;55.47;;;11.50;99.90;;;;;;5208130;28;20026;-77
2023/05/16 00:56:02;;;;;;;56.08;51.28;;;11.60;99.90;;;;;;5208144;28;20084;-77
2023/05/16 00:58:33;;;;;;;55.22;50.90;;;11.60;99.90;;;;;;5189931;28;20121;-78
2023/05/16 01:01:04;;;;;;;55.05;50.67;;;11.40;99.90;;;;;;5208001;28;20041;-77
2023/05/16 01:03:36;;;;;;;50.47;46.38;;;11.40;99.90;;;;;;5207961;28;20029;-77
2023/05/16 01:06:07;;;;;;;48.55;44.60;;;11.50;99.90;;;;;;5190410;28;20140;-77
2023/05/16 01:08:37;;;;;;;49.63;45.70;;;11.70;99.90;;;;;;5190261;28;20116;-77
2023/05/16 01:11:20;;;;;;;53.15;49.05;;;11.70;99.90;;;;;;5207931;28;20057;-77
2023/05/16 01:13:58;;;;;;;50.47;46.47;;;11.60;99.90;;;;;;5207839;28;20033;-77
2023/05/16 01:16:39;;;;;;;50.28;46.35;;;11.70;99.90;;;;;;5207170;28;20029;-78
2023/05/16 01:19:33;;;;;;;49.08;45.17;;;11.70;99.90;;;;;;5207348;28;20128;-77
2023/05/16 01:22:16;;;;;;;51.83;47.65;;;11.80;99.90;;;;;;5207580;28;20101;-78
2023/05/16 01:25:04;;;;;;;51.30;47.30;;;11.80;99.90;;;;;;5207216;28;20531;-77
2023/05/16 01:27:36;;;;;;;51.00;46.92;;;11.80;99.90;;;;;;5189848;28;20037;-77
2023/05/16 01:30:16;;;;;;;51.58;47.58;;;12.00;99.90;;;;;;5207266;28;20453;-77
2023/05/16 01:32:46;;;;;;;49.20;45.30;;;11.90;99.90;;;;;;5207296;28;20417;-77
2023/05/16 01:35:17;;;;;;;51.17;47.05;;;12.00;99.90;;;;;;5207595;28;20030;-78
2023/05/16 01:38:20;;;;;;;48.35;44.45;;;12.10;99.90;;;;;;5207203;28;20025;-77
2023/05/16 01:40:54;;;;;;;50.17;46.28;;;11.90;99.90;;;;;;5207317;28;20124;-78
2023/05/16 01:43:50;;;;;;;49.15;45.03;;;12.10;99.90;;;;;;5206935;28;20089;-77
2023/05/16 01:46:25;;;;;;;59.25;54.15;;;12.10;99.90;;;;;;5206890;28;20742;-77
2023/05/16 01:49:19;;;;;;;63.25;57.58;;;12.20;99.90;;;;;;5207068;28;20076;-77
2023/05/16 01:51:56;;;;;;;66.47;60.10;;;12.20;99.90;;;;;;5206895;28;20612;-78
2023/05/16 01:54:32;;;;;;;64.22;58.15;;;12.30;99.90;;;;;;5207105;28;20025;-78
2023/05/16 01:57:04;;;;;;;61.17;55.50;;;12.20;99.90;;;;;;5189258;28;20060;-77
2023/05/16 01:59:36;;;;;;;63.22;56.83;;;12.20;99.90;;;;;;5206753;28;20030;-78
2023/05/16 02:02:07;;;;;;;60.38;54.78;;;12.20;99.90;;;;;;5207087;28;20108;-77
2023/05/16 02:04:38;;;;;;;66.50;60.25;;;12.20;99.90;;;;;;5206542;28;20093;-77
2023/05/16 02:07:09;;;;;;;60.15;54.47;;;12.20;99.90;;;;;;5206711;28;20036;-77
2023/05/16 02:09:40;;;;;;;56.63;51.28;;;12.10;99.90;;;;;;5206703;28;20026;-77
2023/05/16 02:12:11;;;;;;;64.60;58.22;;;12.40;99.90;;;;;;5206765;28;20373;-75
2023/05/16 02:14:42;;;;;;;66.82;60.47;;;12.30;99.90;;;;;;5206803;28;20021;-78
2023/05/16 02:17:13;;;;;;;70.72;63.92;;;12.30;99.90;;;;;;5206747;28;20099;-78
2023/05/16 02:19:44;;;;;;;77.95;70.22;;;12.30;99.90;;;;;;5188671;28;20045;-78
2023/05/16 02:22:15;;;;;;;69.95;63.53;;;12.20;99.90;;;;;;5206416;28;20033;-77
2023/05/16 02:24:45;;;;;;;60.60;54.55;;;12.30;99.90;;;;;;5188752;28;20096;-77
2023/05/16 02:27:16;;;;;;;59.50;53.75;;;12.40;99.90;;;;;;5205900;28;20029;-77
2023/05/16 02:29:47;;;;;;;55.55;50.05;;;12.30;99.90;;;;;;5206422;28;20026;-77
2023/05/16 02:32:18;;;;;;;58.75;53.10;;;12.40;99.90;;;;;;5206373;28;20400;-78
2023/05/16 02:34:49;;;;;;;56.53;51.08;;;12.50;99.90;;;;;;5206560;28;20509;-77
2023/05/16 02:37:20;;;;;;;57.13;51.75;;;12.40;99.90;;;;;;5188785;28;20029;-78
2023/05/16 02:39:51;;;;;;;54.03;49.20;;;12.40;99.90;;;;;;5206109;28;20044;-78
2023/05/16 02:42:21;;;;;;;57.45;52.28;;;12.40;99.90;;;;;;5188679;28;20021;-77
2023/05/16 02:44:53;;;;;;;52.47;47.67;;;12.40;99.90;;;;;;5205647;28;20018;-78
2023/05/16 02:47:24;;;;;;;52.95;48.05;;;12.40;99.90;;;;;;5205674;28;20401;-77
2023/05/16 02:49:56;;;;;;;56.25;50.75;;;12.50;99.90;;;;;;5205727;28;20143;-77
2023/05/16 02:52:26;;;;;;;55.83;50.63;;;12.30;99.90;;;;;;5206203;28;20148;-78
2023/05/16 02:54:57;;;;;;;56.08;51.25;;;12.50;99.90;;;;;;5188588;28;20132;-77
2023/05/16 02:57:28;;;;;;;53.63;48.63;;;12.50;99.90;;;;;;5206229;28;20115;-77
2023/05/16 02:59:59;;;;;;;52.42;47.92;;;12.30;99.90;;;;;;5206396;28;20068;-78
2023/05/16 03:02:30;;;;;;;47.38;43.33;;;12.50;99.90;;;;;;5188595;28;20021;-76
2023/05/16 03:05:01;;;;;;;48.10;43.88;;;12.50;99.90;;;;;;5188357;28;20040;-77
2023/05/16 03:07:32;;;;;;;46.00;42.10;;;12.60;99.90;;;;;;5188174;28;20104;-78
2023/05/16 03:10:04;;;;;;;43.80;40.00;;;12.70;99.90;;;;;;5205837;28;20025;-77
2023/05/16 03:12:35;;;;;;;44.78;41.28;;;12.80;99.90;;;;;;5205255;28;20486;-77
2023/05/16 03:15:08;;;;;;;45.75;42.28;;;12.80;99.90;;;;;;5188269;28;20045;-77
2023/05/16 03:17:38;;;;;;;47.10;43.05;;;12.90;99.90;;;;;;5205905;28;20026;-77
2023/05/16 03:20:10;;;;;;;53.13;49.20;;;12.90;99.90;;;;;;5205784;28;20052;-77
2023/05/16 03:22:41;;;;;;;44.15;40.53;;;13.00;99.90;;;;;;5205812;28;20025;-77
2023/05/16 03:25:12;;;;;;;43.85;40.55;;;13.10;99.90;;;;;;5206052;28;20029;-77
2023/05/16 03:27:42;;;;;;;46.40;42.63;;;13.10;99.90;;;;;;5205732;28;20018;-77
2023/05/16 03:30:14;;;;;;;47.33;43.50;;;13.20;99.90;;;;;;5205797;28;20044;-77
2023/05/16 03:32:45;;;;;;;52.55;48.35;;;13.20;99.90;;;;;;5205859;28;20032;-77
2023/05/16 03:35:16;;;;;;;49.95;45.78;;;13.30;99.90;;;;;;5187998;28;20026;-77
2023/05/16 03:37:47;;;;;;;53.05;48.88;;;13.30;99.90;;;;;;5206000;28;20033;-77
2023/05/16 03:40:18;;;;;;;52.67;47.90;;;13.30;99.90;;;;;;5205795;28;20120;-77
2023/05/16 03:42:49;;;;;;;51.72;47.63;;;13.20;99.90;;;;;;5188223;28;20026;-78
2023/05/16 03:45:20;;;;;;;49.58;45.58;;;13.30;99.90;;;;;;5205796;28;20033;-76
2023/05/16 03:47:51;;;;;;;47.88;43.83;;;13.40;99.90;;;;;;5205529;28;20032;-77
2023/05/16 03:50:22;;;;;;;44.60;40.80;;;13.40;99.90;;;;;;5205322;28;20084;-77
2023/05/16 03:52:53;;;;;;;44.78;41.17;;;13.50;99.90;;;;;;5205629;28;20579;-77
2023/05/16 03:55:24;;;;;;;43.17;39.65;;;13.60;99.90;;;;;;5188083;28;20039;-78
2023/05/16 03:57:54;;;;;;;40.10;37.00;;;13.70;99.90;;;;;;5209502;28;20440;-77
2023/05/16 04:00:26;;;;;;;42.08;38.80;;;13.80;99.90;;;;;;5209100;28;20555;-77
2023/05/16 04:02:57;;;;;;;42.28;39.10;;;13.90;99.90;;;;;;5209310;28;20053;-77
2023/05/16 04:05:28;;;;;;;40.92;37.78;;;13.90;99.90;;;;;;5191360;28;20104;-78
2023/05/16 04:07:59;;;;;;;40.25;37.35;;;14.00;99.90;;;;;;5191036;28;20037;-78
2023/05/16 04:10:29;;;;;;;38.97;36.10;;;14.10;99.90;;;;;;5209029;28;20029;-77
2023/05/16 04:13:00;;;;;;;39.30;36.60;;;14.20;99.90;;;;;;5191284;28;20433;-77
2023/05/16 04:15:31;;;;;;;37.60;34.90;;;14.30;99.90;;;;;;5209143;28;20018;-77
2023/05/16 04:18:03;;;;;;;37.08;34.25;;;14.30;99.90;;;;;;5208883;28;20028;-77
2023/05/16 04:20:35;;;;;;;34.47;31.98;;;14.40;99.90;;;;;;5190729;28;20054;-77
2023/05/16 04:23:06;;;;;;;35.88;33.38;;;14.50;99.90;;;;;;5208964;28;20033;-78
2023/05/16 04:25:37;;;;;;;37.78;35.03;;;14.60;99.90;;;;;;5208927;28;20025;-77
2023/05/16 04:28:07;;;;;;;38.13;35.22;;;14.50;99.90;;;;;;5208531;28;20026;-77
2023/05/16 04:30:38;;;;;;;35.35;32.80;;;14.70;99.90;;;;;;5208706;28;20486;-78
2023/05/16 04:33:09;;;;;;;37.45;34.85;;;14.70;99.90;;;;;;5208606;28;20029;-77
2023/05/16 04:35:40;;;;;;;36.25;33.75;;;14.80;99.90;;;;;;5190852;28;20067;-77
2023/05/16 04:38:11;;;;;;;35.33;32.78;;;14.80;99.90;;;;;;5190663;28;20040;-77
2023/05/16 04:40:42;;;;;;;37.13;34.65;;;14.70;99.90;;;;;;5190404;28;20041;-77
2023/05/16 04:43:13;;;;;;;35.22;32.53;;;14.80;99.90;;;;;;5208391;28;20493;-77
2023/05/16 04:45:44;;;;;;;32.55;30.02;;;14.90;99.90;;;;;;5208310;28;20033;-78
2023/05/16 04:48:15;;;;;;;33.60;31.20;;;14.80;99.90;;;;;;5208597;28;20125;-78
2023/05/16 04:50:46;;;;;;;32.80;30.40;;;15.00;99.90;;;;;;5190349;28;20049;-78
2023/05/16 04:53:16;;;;;;;33.53;31.13;;;15.00;99.90;;;;;;5208270;28;20040;-78
2023/05/16 04:55:47;;;;;;;32.90;30.52;;;15.10;99.90;;;;;;5208408;28;20025;-78
2023/05/16 04:58:18;;;;;;;30.40;28.08;;;15.20;99.90;;;;;;5208232;28;20029;-78
2023/05/16 05:00:51;;;;;;;31.40;29.10;;;15.20;99.90;;;;;;5208163;28;20033;-77
2023/05/16 05:03:22;;;;;;;31.48;28.98;;;15.20;99.90;;;;;;5208204;28;20383;-77
2023/05/16 05:05:53;;;;;;;31.77;29.33;;;15.20;99.90;;;;;;5190406;28;20026;-78
2023/05/16 05:08:24;;;;;;;33.03;30.65;;;15.10;99.90;;;;;;5207540;28;20026;-78
2023/05/16 05:10:58;;;;;;;32.70;30.00;;;15.20;99.90;;;;;;5208165;28;20507;-78
2023/05/16 05:13:29;;;;;;;33.95;31.25;;;15.20;99.90;;;;;;5208086;28;20035;-78
2023/05/16 05:16:00;;;;;;;32.65;29.95;;;15.30;99.90;;;;;;5190103;28;20025;-78
2023/05/16 05:18:31;;;;;;;32.13;29.80;;;15.30;99.90;;;;;;5207839;28;20029;-77
2023/05/16 05:21:02;;;;;;;34.00;31.33;;;15.40;99.90;;;;;;5207582;28;20536;-78
2023/05/16 05:23:33;;;;;;;33.38;30.80;;;15.40;99.90;;;;;;5207114;28;20115;-78
2023/05/16 05:26:04;;;;;;;32.55;30.05;;;15.50;99.90;;;;;;5207582;28;20021;-78
2023/05/16 05:28:36;;;;;;;31.27;29.00;;;15.50;99.90;;;;;;5189769;28;20385;-78
2023/05/16 05:31:07;;;;;;;32.45;29.95;;;15.50;99.90;;;;;;5207451;28;20425;-77
2023/05/16 05:33:41;;;;;;;31.17;28.80;;;15.60;99.90;;;;;;5207489;28;20379;-78
2023/05/16 05:36:11;;;;;;;30.42;28.02;;;15.60;99.90;;;;;;5207437;28;20473;-77
2023/05/16 05:38:42;;;;;;;29.35;26.95;;;15.70;99.90;;;;;;5207199;28;20112;-78
2023/05/16 05:41:13;;;;;;;27.60;25.25;;;15.70;99.90;;;;;;5206840;28;20385;-78
2023/05/16 05:43:44;;;;;;;29.52;27.02;;;15.80;99.90;;;;;;5207108;28;20040;-77
2023/05/16 05:46:16;;;;;;;27.52;25.17;;;15.70;99.90;;;;;;5189838;28;20026;-78
2023/05/16 05:48:46;;;;;;;27.10;24.70;;;15.90;99.90;;;;;;5206391;28;20026;-78
2023/05/16 05:51:18;;;;;;;29.02;26.50;;;16.00;99.90;;;;;;5207037;28;20551;-78
2023/05/16 05:53:49;;;;;;;26.67;24.42;;;16.10;99.90;;;;;;5207163;28;20389;-78
2023/05/16 05:56:20;;;;;;;27.73;25.23;;;16.10;99.90;;;;;;5188760;28;20017;-78
2023/05/16 05:58:51;;;;;;;25.10;22.50;;;16.10;99.90;;;;;;5207043;28;20025;-78
2023/05/16 06:01:22;;;;;;;25.40;23.25;;;16.20;99.90;;;;;;5188741;28;20087;-78
2023/05/16 06:03:53;;;;;;;23.30;21.33;;;16.60;99.90;;;;;;5206774;28;20026;-78
2023/05/16 06:06:23;;;;;;;22.05;20.30;;;16.70;99.90;;;;;;5206988;28;20381;-78
2023/05/16 06:08:54;;;;;;;23.88;21.92;;;16.70;99.90;;;;;;5206684;28;20026;-78
2023/05/16 06:11:25;;;;;;;21.67;19.83;;;16.90;99.90;;;;;;5188412;28;20441;-78
2023/05/16 06:13:56;;;;;;;21.85;19.85;;;17.00;99.90;;;;;;5189050;28;20022;-78
2023/05/16 06:16:27;;;;;;;22.98;21.13;;;17.10;99.90;;;;;;5206801;28;20401;-76
2023/05/16 06:18:58;;;;;;;25.33;23.20;;;17.30;99.90;;;;;;5205812;28;20053;-78
2023/05/16 06:21:29;;;;;;;27.38;25.30;;;17.30;99.90;;;;;;5206253;28;20045;-77
2023/05/16 06:23:59;;;;;;;25.33;23.38;;;17.40;99.90;;;;;;5206710;28;20032;-78
2023/05/16 06:26:32;;;;;;;25.02;22.38;;;17.40;99.90;;;;;;5206116;28;20038;-78
2023/05/16 06:29:02;;;;;;;24.27;22.33;;;17.50;99.90;;;;;;5205996;28;20021;-78
2023/05/16 06:31:33;;;;;;;22.20;20.38;;;17.70;99.90;;;;;;5188553;28;20137;-78
2023/05/16 06:34:04;;;;;;;22.52;20.65;;;17.90;99.90;;;;;;5206390;28;20072;-78
2023/05/16 06:36:35;;;;;;;20.73;19.08;;;17.80;99.90;;;;;;5205767;28;20124;-78
2023/05/16 06:39:06;;;;;;;19.83;18.33;;;17.90;99.90;;;;;;5206235;28;20026;-78
2023/05/16 06:41:37;;;;;;;21.63;19.65;;;17.90;99.90;;;;;;5206040;28;20036;-77
2023/05/16 06:44:08;;;;;;;21.20;19.60;;;17.40;99.90;;;;;;5206070;28;20101;-78
2023/05/16 06:46:38;;;;;;;21.25;19.55;;;17.30;99.90;;;;;;5206076;28;20029;-78
2023/05/16 06:49:09;;;;;;;20.58;19.05;;;17.30;99.90;;;;;;5205563;28;20525;-78
2023/05/16 06:51:40;;;;;;;23.08;21.30;;;17.90;99.90;;;;;;5188358;28;20124;-78
2023/05/16 06:54:11;;;;;;;24.70;22.40;;;17.90;99.90;;;;;;5206148;28;20406;-78
2023/05/16 06:56:42;;;;;;;22.30;20.23;;;17.90;99.90;;;;;;5206057;28;20024;-78
2023/05/16 06:59:13;;;;;;;21.92;20.20;;;18.10;99.90;;;;;;5206068;28;20029;-77
2023/05/16 07:01:44;;;;;;;23.77;21.73;;;18.20;99.90;;;;;;5188252;28;20033;-78
2023/05/16 07:04:15;;;;;;;23.42;21.58;;;18.30;99.90;;;;;;5187884;28;20026;-78
2023/05/16 07:06:46;;;;;;;21.88;20.08;;;18.50;99.90;;;;;;5205846;28;20036;-78
2023/05/16 07:09:17;;;;;;;21.40;19.55;;;18.40;99.90;;;;;;5188012;28;20022;-78
2023/05/16 07:11:47;;;;;;;20.65;18.67;;;18.40;99.90;;;;;;5205822;28;20060;-78
2023/05/16 07:14:18;;;;;;;21.30;19.80;;;18.50;99.90;;;;;;5205920;28;20104;-78
2023/05/16 07:16:49;;;;;;;19.45;17.85;;;18.50;99.90;;;;;;5188030;28;20030;-78
2023/05/16 07:19:20;;;;;;;18.80;17.30;;;18.70;99.90;;;;;;5187758;28;20105;-78
2023/05/16 07:21:51;;;;;;;18.67;17.20;;;18.70;99.90;;;;;;5205728;28;20059;-76
2023/05/16 07:24:22;;;;;;;18.30;16.88;;;18.70;99.90;;;;;;5205597;28;20025;-78
2023/05/16 07:26:53;;;;;;;19.42;17.60;;;18.90;99.90;;;;;;5187805;28;20842;-78
2023/05/16 07:29:24;;;;;;;20.30;18.45;;;19.20;99.90;;;;;;5205622;28;20044;-77
2023/05/16 07:31:55;;;;;;;19.02;17.42;;;19.10;99.90;;;;;;5207991;28;20048;-78
2023/05/16 07:34:26;;;;;;;21.55;19.90;;;19.30;99.90;;;;;;5209309;28;20070;-78
2023/05/16 07:36:57;;;;;;;20.70;19.00;;;18.90;99.90;;;;;;5209376;28;20021;-78
2023/05/16 07:39:28;;;;;;;21.90;19.75;;;19.20;99.90;;;;;;5209284;28;20032;-78
2023/05/16 07:41:58;;;;;;;21.55;19.45;;;19.20;99.90;;;;;;5209292;28;20424;-78
2023/05/16 07:44:30;;;;;;;18.83;17.25;;;19.40;99.90;;;;;;5191564;28;20099;-78
2023/05/16 07:47:01;;;;;;;19.58;18.08;;;19.30;99.90;;;;;;5209038;28;20052;-78
2023/05/16 07:49:31;;;;;;;20.75;19.25;;;19.40;99.90;;;;;;5208651;28;20049;-79
2023/05/16 07:52:03;;;;;;;19.45;17.95;;;19.50;99.90;;;;;;5209088;28;20029;-78
2023/05/16 07:54:35;;;;;;;18.67;17.20;;;19.60;99.90;;;;;;5208994;28;20033;-78
2023/05/16 07:57:06;;;;;;;21.50;19.90;;;19.80;99.90;;;;;;5208838;28;20087;-78
2023/05/16 07:59:37;;;;;;;19.73;18.33;;;20.00;99.90;;;;;;5208852;28;20068;-78
2023/05/16 08:02:09;;;;;;;19.65;18.20;;;20.00;99.90;;;;;;5208477;28;20073;-78
2023/05/16 08:04:40;;;;;;;20.38;18.77;;;20.10;99.90;;;;;;5208591;28;20432;-78
2023/05/16 08:07:10;;;;;;;21.52;20.02;;;20.10;99.90;;;;;;5191018;28;20156;-75
2023/05/16 08:09:41;;;;;;;20.15;18.65;;;20.20;99.90;;;;;;5209168;28;20096;-78
2023/05/16 08:12:12;;;;;;;20.52;19.13;;;20.10;99.90;;;;;;5208577;28;20026;-78
2023/05/16 08:14:43;;;;;;;22.35;20.75;;;20.40;99.90;;;;;;5208438;28;20456;-79
2023/05/16 08:17:14;;;;;;;22.48;20.15;;;20.50;99.90;;;;;;5190569;28;20029;-79
2023/05/16 08:19:45;;;;;;;20.75;19.25;;;20.50;99.90;;;;;;5208263;28;20037;-78
2023/05/16 08:22:16;;;;;;;22.77;21.10;;;20.50;99.90;;;;;;5190547;28;20033;-78
2023/05/16 08:24:47;;;;;;;21.02;19.52;;;20.50;99.90;;;;;;5208278;28;20021;-78
2023/05/16 08:27:17;;;;;;;23.70;22.02;;;20.70;99.90;;;;;;5208391;28;20029;-78
2023/05/16 08:29:48;;;;;;;25.92;23.95;;;20.60;99.90;;;;;;5190571;28;20381;-78
2023/05/16 08:32:21;;;;;;;23.08;21.13;;;20.80;99.90;;;;;;5207780;28;20037;-78
2023/05/16 08:34:51;;;;;;;22.48;20.98;;;20.90;99.90;;;;;;5190248;28;20032;-78
2023/05/16 08:37:22;;;;;;;25.33;23.52;;;20.90;99.90;;;;;;5208218;28;20029;-78
2023/05/16 08:39:53;;;;;;;20.20;18.73;;;21.00;99.90;;;;;;5207714;28;20081;-78
2023/05/16 08:42:24;;;;;;;23.45;21.85;;;21.10;99.90;;;;;;5189515;28;20443;-78
2023/05/16 08:44:55;;;;;;;23.45;21.63;;;21.20;99.90;;;;;;5208174;28;20060;-78
2023/05/16 08:47:29;;;;;;;23.92;22.27;;;21.30;99.90;;;;;;5207784;28;20458;-78
2023/05/16 08:50:03;;;;;;;21.92;20.25;;;21.20;99.90;;;;;;5207618;28;20042;-78
2023/05/16 08:52:36;;;;;;;23.00;21.50;;;21.40;99.90;;;;;;5207749;28;20025;-79
2023/05/16 08:55:08;;;;;;;21.35;19.83;;;21.60;99.90;;;;;;5207561;28;20018;-78
2023/05/16 08:57:40;;;;;;;19.85;18.55;;;21.20;99.90;;;;;;5189852;28;20088;-78
2023/05/16 09:00:11;;;;;;;19.30;17.73;;;21.40;99.90;;;;;;5207355;28;20092;-78
2023/05/16 09:02:45;;;;;;;20.25;18.67;;;21.60;99.90;;;;;;5207799;28;20466;-79
2023/05/16 09:05:17;;;;;;;18.80;17.60;;;21.60;99.90;;;;;;5207443;28;20028;-78
2023/05/16 09:07:48;;;;;;;19.63;18.38;;;21.50;99.90;;;;;;5189719;28;20378;-79
2023/05/16 09:10:18;;;;;;;19.15;17.67;;;21.80;99.90;;;;;;5207415;28;20024;-79
2023/05/16 09:12:49;;;;;;;22.17;20.77;;;21.90;99.90;;;;;;5189544;28;20026;-79
2023/05/16 09:15:20;;;;;;;20.38;18.83;;;21.70;99.90;;;;;;5206949;28;20026;-78
2023/05/16 09:17:51;;;;;;;20.88;19.52;;;22.10;99.90;;;;;;5207068;28;20101;-78
2023/05/16 09:20:22;;;;;;;22.50;20.80;;;22.10;99.90;;;;;;5206662;28;20064;-79
2023/05/16 09:22:58;;;;;;;21.27;19.67;;;22.30;99.90;;;;;;5207085;28;20080;-79
2023/05/16 09:25:30;;;;;;;19.98;18.55;;;22.20;99.90;;;;;;5206969;28;20553;-79
2023/05/16 09:28:01;;;;;;;20.20;18.80;;;22.30;99.90;;;;;;5206537;28;20036;-77
2023/05/16 09:30:32;;;;;;;16.98;15.57;;;22.40;99.90;;;;;;5206814;28;20021;-78
2023/05/16 09:33:06;;;;;;;16.35;15.02;;;22.30;99.90;;;;;;5188959;28;20040;-77
2023/05/16 09:35:37;;;;;;;16.90;15.25;;;22.40;99.90;;;;;;5207021;28;20424;-79
2023/05/16 09:38:16;;;;;;;16.20;15.05;;;22.60;99.90;;;;;;5188793;28;20029;-79
2023/05/16 09:40:47;;;;;;;16.75;15.25;;;22.70;99.90;;;;;;5206608;28;20552;-78
2023/05/16 09:43:26;;;;;;;15.35;14.20;;;22.80;99.90;;;;;;5206555;28;20026;-79
2023/05/16 09:45:58;;;;;;;16.25;14.85;;;22.80;99.90;;;;;;5206817;28;20465;-79
2023/05/16 09:48:30;;;;;;;15.68;14.63;;;23.00;99.90;;;;;;5206508;28;20068;-78
2023/05/16 09:51:05;;;;;;;18.58;17.30;;;22.80;99.90;;;;;;5206403;28;20037;-78
2023/05/16 09:53:37;;;;;;;17.58;16.17;;;22.60;99.90;;;;;;5188585;28;20017;-79
2023/05/16 09:56:12;;;;;;;17.88;16.45;;;22.60;99.90;;;;;;5206347;28;20033;-79
2023/05/16 09:58:46;;;;;;;18.15;16.63;;;22.90;99.90;;;;;;5188874;28;20092;-79
2023/05/16 10:01:18;;;;;;;16.92;15.45;;;22.80;99.90;;;;;;5205945;28;20034;-79
2023/05/16 10:03:50;;;;;;;19.20;17.70;;;23.00;99.90;;;;;;5188459;28;20021;-79
2023/05/16 10:06:21;;;;;;;18.17;16.73;;;22.90;99.90;;;;;;5206133;28;20025;-78
2023/05/16 10:08:52;;;;;;;16.55;15.30;;;23.20;99.90;;;;;;5205973;28;20026;-78
2023/05/16 10:11:23;;;;;;;15.93;14.52;;;23.10;99.90;;;;;;5205880;28;20063;-78
2023/05/16 10:13:55;;;;;;;15.60;14.38;;;23.10;99.90;;;;;;5206107;28;20032;-79
2023/05/16 10:16:26;;;;;;;17.90;16.40;;;22.80;99.90;;;;;;5188086;28;20021;-79
2023/05/16 10:18:57;;;;;;;18.50;17.10;;;23.10;99.90;;;;;;5205939;28;20030;-79
2023/05/16 10:21:30;;;;;;;19.52;17.98;;;23.20;99.90;;;;;;5205769;28;20056;-79
2023/05/16 10:24:05;;;;;;;18.35;16.95;;;23.30;99.90;;;;;;5205783;28;20468;-79
2023/05/16 10:26:36;;;;;;;18.45;17.15;;;22.90;99.90;;;;;;5205841;28;20037;-79
2023/05/16 10:29:07;;;;;;;18.08;16.55;;;22.90;99.90;;;;;;5205609;28;20081;-79
2023/05/16 10:31:38;;;;;;;18.42;17.05;;;23.10;99.90;;;;;;5188187;28;20033;-78
2023/05/16 10:34:09;;;;;;;18.88;17.48;;;22.70;99.90;;;;;;5205768;28;20029;-79
2023/05/16 10:36:40;;;;;;;17.50;16.20;;;23.50;99.90;;;;;;5205595;28;20092;-79
2023/05/16 10:39:12;;;;;;;15.98;14.65;;;23.40;99.90;;;;;;5204895;28;20049;-80
2023/05/16 10:41:43;;;;;;;15.07;13.70;;;23.60;99.90;;;;;;5205698;28;20152;-79
2023/05/16 10:44:17;;;;;;;15.52;14.45;;;23.10;99.90;;;;;;5205684;28;20457;-79
2023/05/16 10:46:48;;;;;;;15.35;14.18;;;23.70;99.90;;;;;;5205305;28;20026;-79
2023/05/16 10:49:30;;;;;;;15.10;13.82;;;23.30;99.90;;;;;;5205337;28;20413;-79
2023/05/16 10:52:09;;;;;;;14.05;13.00;;;23.50;99.90;;;;;;5205579;28;20363;-79
2023/05/16 10:54:42;;;;;;;14.52;13.50;;;23.70;99.90;;;;;;5205658;28;20116;-79
2023/05/16 10:57:22;;;;;;;12.88;11.88;;;23.80;99.90;;;;;;5205485;28;20122;-79
2023/05/16 10:59:57;;;;;;;12.52;11.43;;;22.90;99.90;;;;;;5205320;28;20048;-79
2023/05/16 11:02:33;;;;;;;12.60;11.63;;;23.00;99.90;;;;;;5205361;28;20373;-79
2023/05/16 11:05:05;;;;;;;11.13;10.32;;;22.80;99.90;;;;;;5205286;28;20683;-79
2023/05/16 11:07:37;;;;;;;12.55;11.32;;;22.70;99.90;;;;;;5209422;28;20071;-79
2023/05/16 11:10:10;;;;;;;11.10;10.10;;;22.80;99.90;;;;;;5209541;28;20028;-79
2023/05/16 11:12:46;;;;;;;11.98;10.85;;;22.60;99.90;;;;;;5191644;28;20115;-79
2023/05/16 11:15:23;;;;;;;11.48;10.40;;;22.90;99.90;;;;;;5209300;28;20022;-79
2023/05/16 11:18:15;;;;;;;11.52;10.73;;;22.90;99.90;;;;;;5191410;28;20079;-79
2023/05/16 11:20:50;;;;;;;12.43;11.25;;;22.70;99.90;;;;;;5209019;28;20527;-79
2023/05/16 11:23:23;;;;;;;12.80;11.55;;;22.60;99.90;;;;;;5191401;28;20500;-79
2023/05/16 11:25:59;;;;;;;13.15;12.05;;;22.30;99.90;;;;;;5191360;28;20021;-78
2023/05/16 11:28:31;;;;;;;12.10;10.98;;;22.70;99.90;;;;;;5191429;28;20030;-80
2023/05/16 11:31:04;;;;;;;13.77;12.68;;;23.00;99.90;;;;;;5208899;28;20025;-79
2023/05/16 11:33:35;;;;;;;14.45;13.23;;;23.20;99.90;;;;;;5209053;28;20009;-79
2023/05/16 11:36:08;;;;;;;13.00;11.90;;;23.00;99.90;;;;;;5208897;28;20025;-79
2023/05/16 11:38:42;;;;;;;13.25;11.90;;;23.40;99.90;;;;;;5208770;28;20021;-79
2023/05/16 11:41:16;;;;;;;14.32;12.98;;;23.30;99.90;;;;;;5208554;28;20598;-79
2023/05/16 11:43:47;;;;;;;14.35;13.30;;;22.70;99.90;;;;;;5208944;28;20025;-76
2023/05/16 11:46:18;;;;;;;14.25;13.13;;;22.70;99.90;;;;;;5208805;28;20044;-79
2023/05/16 11:48:49;;;;;;;17.40;15.70;;;22.80;99.90;;;;;;5208318;28;20104;-79
2023/05/16 11:51:21;;;;;;;15.73;14.40;;;22.60;99.90;;;;;;5208733;28;20594;-79
2023/05/16 11:53:52;;;;;;;18.13;16.75;;;22.40;99.90;;;;;;5208621;28;20051;-79
2023/05/16 11:56:23;;;;;;;18.15;16.70;;;22.40;99.90;;;;;;5208594;28;20049;-79
2023/05/16 11:58:55;;;;;;;15.60;14.50;;;22.20;99.90;;;;;;5191105;28;20053;-79
2023/05/16 12:01:32;;;;;;;15.30;14.20;;;21.80;99.90;;;;;;5208608;28;20523;-79
2023/05/16 12:04:11;;;;;;;19.52;17.58;;;22.10;99.90;;;;;;5190865;28;20802;-79
2023/05/16 12:06:47;;;;;;;17.75;16.05;;;22.30;99.90;;;;;;5208676;28;20030;-79
2023/05/16 12:09:18;;;;;;;15.98;14.88;;;22.30;99.90;;;;;;5190663;28;20022;-79
2023/05/16 12:11:51;;;;;;;16.77;15.30;;;22.00;99.90;;;;;;5208193;28;20363;-79
2023/05/16 12:14:22;;;;;;;16.85;15.65;;;22.00;99.90;;;;;;5208318;28;20100;-79
2023/05/16 12:16:53;;;;;;;17.17;15.70;;;21.90;99.90;;;;;;5208011;28;20757;-79
2023/05/16 12:19:25;;;;;;;17.17;15.77;;;21.70;99.90;;;;;;5190251;28;20058;-79
2023/05/16 12:21:55;;;;;;;15.63;14.32;;;21.70;99.90;;;;;;5208143;28;20052;-79
2023/05/16 12:24:30;;;;;;;18.15;16.67;;;21.30;99.90;;;;;;5190452;28;20489;-78
2023/05/16 12:27:01;;;;;;;15.88;14.52;;;21.60;99.90;;;;;;5190432;28;20458;-79
2023/05/16 12:29:32;;;;;;;19.90;17.88;;;21.90;99.90;;;;;;5208404;28;20033;-79
2023/05/16 12:32:06;;;;;;;17.83;16.13;;;21.80;99.90;;;;;;5208186;28;20032;-79
2023/05/16 12:34:37;;;;;;;17.77;16.42;;;21.80;99.90;;;;;;5207803;28;20087;-79
2023/05/16 12:37:08;;;;;;;19.45;17.70;;;22.30;99.90;;;;;;5207914;28;20412;-79
2023/05/16 12:39:39;;;;;;;18.38;16.98;;;22.70;99.90;;;;;;5207455;28;20168;-79
2023/05/16 12:42:12;;;;;;;19.83;18.30;;;22.50;99.90;;;;;;5207652;28;20040;-80
2023/05/16 12:44:45;;;;;;;18.02;16.63;;;22.40;99.90;;;;;;5207830;28;20096;-79
2023/05/16 12:47:16;;;;;;;19.95;18.20;;;22.20;99.90;;;;;;5189667;28;20385;-79
2023/05/16 12:49:50;;;;;;;19.70;18.15;;;21.90;99.90;;;;;;5207389;28;20052;-79
2023/05/16 12:52:21;;;;;;;17.70;16.20;;;22.20;99.90;;;;;;5207501;28;20098;-79